Time;durP1;ratioP1;P1;durP2;ratioP2;P2;SDS_P1;SDS_P2;PMS_P1;PMS_P2;Temp;Humidity;BMP_temperature;BMP_pressure;BME280_temperature;BME280_humidity;BME280_pressure;Samples;Min_cycle;Max_cycle;Signal;HPM_P1;HPM_P2
2023/08/06 00:00:45;;;;;;;8.93;5.43;;;;;;;-142.75;100.00;75353.97;5071394;28;20017;-66
2023/08/06 00:03:10;;;;;;;9.27;5.90;;;;;;;-142.75;100.00;75361.84;5082080;28;20487;-66
2023/08/06 00:05:35;;;;;;;7.75;5.88;;;;;;;-142.75;100.00;75353.97;5081006;28;20514;-66
2023/08/06 00:08:01;;;;;;;6.93;5.05;;;;;;;-142.75;100.00;75348.06;5082158;28;20035;-66
2023/08/06 00:10:26;;;;;;;9.73;5.72;;;;;;;-142.75;100.00;75346.09;5072244;28;20020;-67
2023/08/06 00:12:51;;;;;;;7.00;5.25;;;;;;;-142.75;100.00;75326.41;5076814;28;20016;-66
2023/08/06 00:15:17;;;;;;;8.77;6.35;;;;;;;-142.75;100.00;75322.47;5083795;28;20097;-66
2023/08/06 00:17:42;;;;;;;8.15;5.97;;;;;;;-142.75;100.00;75324.44;5076627;28;20034;-65
2023/08/06 00:20:08;;;;;;;7.43;5.35;;;;;;;-142.75;100.00;75318.53;5078049;28;20043;-67
2023/08/06 00:22:37;;;;;;;9.07;5.65;;;;;;;-142.75;100.00;75312.63;5076435;28;20461;-67
2023/08/06 00:25:04;;;;;;;8.75;5.82;;;;;;;-142.75;100.00;75318.53;5072638;28;20020;-69
2023/08/06 00:27:29;;;;;;;9.13;5.15;;;;;;;-142.75;100.00;75336.25;5070277;28;20035;-69
2023/08/06 00:29:55;;;;;;;9.73;6.07;;;;;;;-142.75;100.00;75336.25;5070286;28;20156;-69
2023/08/06 00:32:21;;;;;;;6.97;5.30;;;;;;;-142.75;100.00;75348.06;5075361;28;20024;-66
2023/08/06 00:34:49;;;;;;;8.70;5.25;;;;;;;-142.75;100.00;75338.22;5082589;28;20031;-65
2023/08/06 00:37:17;;;;;;;7.57;4.97;;;;;;;-142.75;100.00;75344.13;5069938;28;20021;-64
2023/08/06 00:39:43;;;;;;;10.25;5.50;;;;;;;-142.75;100.00;75330.34;5066408;28;20027;-66
2023/08/06 00:42:10;;;;;;;7.22;5.53;;;;;;;-142.75;100.00;75322.47;5066199;28;20012;-65
2023/08/06 00:44:36;;;;;;;9.88;4.95;;;;;;;-142.75;100.00;75322.47;5066593;28;20020;-66
2023/08/06 00:47:01;;;;;;;10.45;5.07;;;;;;;-142.75;100.00;75342.16;5066529;28;20032;-66
2023/08/06 00:49:27;;;;;;;10.73;5.13;;;;;;;-142.75;100.00;75342.16;5066457;28;20016;-66
2023/08/06 00:51:52;;;;;;;7.55;4.88;;;;;;;-142.75;100.00;75346.09;5066201;28;20029;-66
2023/08/06 00:54:18;;;;;;;7.38;4.93;;;;;;;-142.75;100.00;75332.31;5070265;28;20027;-66
2023/08/06 00:56:43;;;;;;;7.85;4.55;;;;;;;-142.75;100.00;75330.34;5086424;28;20395;-66
2023/08/06 00:59:10;;;;;;;10.20;4.82;;;;;;;-142.75;100.00;75310.66;5086343;28;20572;-67
2023/08/06 01:01:36;;;;;;;8.77;5.80;;;;;;;-142.75;100.00;75318.53;5086185;28;20028;-66
2023/08/06 01:04:01;;;;;;;7.22;4.85;;;;;;;-142.75;100.00;75312.63;5086709;28;20547;-66
2023/08/06 01:06:48;;;;;;;7.90;5.13;;;;;;;-142.75;100.00;75310.66;5087449;28;20031;-66
2023/08/06 01:09:55;;;;;;;8.10;5.25;;;;;;;-142.75;100.00;75310.66;5086016;28;20099;-66
2023/08/06 01:12:23;;;;;;;8.50;5.75;;;;;;;-142.75;100.00;75320.50;5085908;28;20035;-66
2023/08/06 01:15:02;;;;;;;10.10;5.78;;;;;;;-142.75;100.00;75300.81;5086367;28;20032;-66
2023/08/06 01:17:29;;;;;;;7.30;5.25;;;;;;;-142.75;100.00;75312.63;5081704;28;20032;-65
2023/08/06 01:19:54;;;;;;;8.88;5.30;;;;;;;-142.75;100.00;75316.56;5066155;28;20561;-66
2023/08/06 01:22:20;;;;;;;7.97;5.07;;;;;;;-142.75;100.00;75322.47;5065959;28;20021;-66
2023/08/06 01:24:50;;;;;;;6.57;4.80;;;;;;;-142.75;100.00;75330.34;5066119;28;20483;-66
2023/08/06 01:27:21;;;;;;;9.88;5.30;;;;;;;-142.75;100.00;75318.53;5066267;28;20457;-66
2023/08/06 01:30:02;;;;;;;9.60;5.88;;;;;;;-142.75;100.00;75310.66;5065951;28;20025;-65
2023/08/06 01:32:29;;;;;;;9.18;5.65;;;;;;;-142.75;100.00;75310.66;5069977;28;20063;-66
2023/08/06 01:34:56;;;;;;;8.20;5.50;;;;;;;-142.75;100.00;75326.41;5070981;28;20032;-66
2023/08/06 01:37:22;;;;;;;9.90;5.20;;;;;;;-142.75;100.00;75353.97;5070008;28;20025;-67
2023/08/06 01:39:47;;;;;;;8.20;5.25;;;;;;;-142.75;100.00;75336.25;5069648;28;20100;-66
2023/08/06 01:42:13;;;;;;;7.05;5.32;;;;;;;-142.75;100.00;75326.41;5087981;28;20099;-66
2023/08/06 01:44:38;;;;;;;7.45;4.97;;;;;;;-142.75;100.00;75318.53;5090120;28;20055;-67
2023/08/06 01:47:04;;;;;;;10.25;5.63;;;;;;;-142.75;100.00;75316.56;5089943;28;20027;-67
2023/08/06 01:49:30;;;;;;;10.95;5.40;;;;;;;-142.75;100.00;75318.53;5089817;28;20023;-66
2023/08/06 01:51:55;;;;;;;9.23;5.47;;;;;;;-142.75;100.00;75316.56;5089482;28;20526;-66
2023/08/06 01:54:20;;;;;;;8.43;5.18;;;;;;;-142.75;100.00;75322.47;5089901;28;20028;-66
2023/08/06 01:56:45;;;;;;;8.10;5.00;;;;;;;-142.75;100.00;75318.53;5080891;28;20048;-66
2023/08/06 01:59:11;;;;;;;9.27;6.28;;;;;;;-142.75;100.00;75318.53;5082600;28;20107;-66
2023/08/06 02:01:36;;;;;;;10.63;5.90;;;;;;;-142.75;100.00;75324.44;5089303;28;20051;-65
2023/08/06 02:04:02;;;;;;;8.68;5.40;;;;;;;-142.75;100.00;75338.22;5089567;28;20028;-66
2023/08/06 02:06:27;;;;;;;6.78;4.82;;;;;;;-142.75;100.00;75330.34;5090470;28;20027;-66
2023/08/06 02:08:52;;;;;;;13.00;5.72;;;;;;;-142.75;100.00;75342.16;5089181;28;20389;-66
2023/08/06 02:11:18;;;;;;;7.95;5.22;;;;;;;-142.75;100.00;75330.34;5089364;28;20048;-66
2023/08/06 02:13:43;;;;;;;7.03;4.78;;;;;;;-142.75;100.00;75328.38;5088979;28;20027;-66
2023/08/06 02:16:08;;;;;;;8.52;5.30;;;;;;;-142.75;100.00;75310.66;5089598;28;20031;-66
2023/08/06 02:18:34;;;;;;;9.98;5.70;;;;;;;-142.75;100.00;75318.53;5089351;28;20032;-66
2023/08/06 02:20:59;;;;;;;7.85;5.60;;;;;;;-142.75;100.00;75322.47;5089294;28;20121;-66
2023/08/06 02:23:25;;;;;;;8.45;5.72;;;;;;;-142.75;100.00;75310.66;5088741;28;20063;-66
2023/08/06 02:26:01;;;;;;;10.52;5.93;;;;;;;-142.75;100.00;75316.56;5089249;28;20024;-65
2023/08/06 02:28:28;;;;;;;10.48;5.47;;;;;;;-142.75;100.00;75320.50;5088983;28;20031;-66
2023/08/06 02:30:53;;;;;;;10.82;5.53;;;;;;;-142.75;100.00;75326.41;5089022;28;20028;-66
2023/08/06 02:33:19;;;;;;;8.65;5.00;;;;;;;-142.75;100.00;75332.31;5088749;28;20043;-66
2023/08/06 02:35:44;;;;;;;7.70;5.53;;;;;;;-142.75;100.00;75322.47;5089846;28;20030;-65
2023/08/06 02:38:10;;;;;;;9.23;5.35;;;;;;;-142.75;100.00;75314.59;5088960;28;20023;-67
2023/08/06 02:40:35;;;;;;;11.25;5.50;;;;;;;-142.75;100.00;75314.59;5088453;28;20123;-66
2023/08/06 02:43:00;;;;;;;9.63;5.18;;;;;;;-142.75;100.00;75326.41;5087853;28;20024;-66
2023/08/06 02:45:25;;;;;;;13.02;5.80;;;;;;;-142.75;100.00;75326.41;5080447;28;20040;-66
2023/08/06 02:47:51;;;;;;;9.27;5.85;;;;;;;-142.75;100.00;75330.34;5068525;28;20024;-66
2023/08/06 02:50:16;;;;;;;10.80;6.20;;;;;;;-142.75;100.00;75324.44;5067398;28;20509;-66
2023/08/06 02:52:41;;;;;;;9.25;5.90;;;;;;;-142.75;100.00;75330.34;5067282;28;20518;-67
2023/08/06 02:55:07;;;;;;;8.73;6.40;;;;;;;-142.75;100.00;75322.47;5068826;28;20097;-66
2023/08/06 02:57:32;;;;;;;8.57;5.85;;;;;;;-142.75;100.00;75322.47;5068424;28;20024;-66
2023/08/06 02:59:58;;;;;;;8.18;5.75;;;;;;;-142.75;100.00;75338.22;5068398;28;20036;-66
2023/08/06 03:02:23;;;;;;;8.93;6.30;;;;;;;-142.75;100.00;75334.28;5067897;28;20043;-66
2023/08/06 03:04:48;;;;;;;9.43;6.15;;;;;;;-142.75;100.00;75342.16;5083549;28;20032;-66
2023/08/06 03:07:14;;;;;;;10.07;6.72;;;;;;;-142.75;100.00;75328.38;5075054;28;20089;-66
2023/08/06 03:09:39;;;;;;;10.70;7.25;;;;;;;-142.75;100.00;75338.22;5071915;28;20020;-67
2023/08/06 03:12:05;;;;;;;11.77;7.05;;;;;;;-142.75;100.00;75342.16;5075019;28;20028;-67
2023/08/06 03:14:30;;;;;;;12.43;7.50;;;;;;;-142.75;100.00;75357.91;5070577;28;20032;-67
2023/08/06 03:16:56;;;;;;;13.32;7.88;;;;;;;-142.75;100.00;75361.84;5073034;28;20028;-67
2023/08/06 03:19:21;;;;;;;10.50;7.88;;;;;;;-142.75;100.00;75344.13;5075009;28;20484;-67
2023/08/06 03:21:46;;;;;;;12.35;7.85;;;;;;;-142.75;100.00;75348.06;5069599;28;20033;-66
2023/08/06 03:24:13;;;;;;;10.55;7.50;;;;;;;-142.75;100.00;75350.03;5074273;28;20115;-66
2023/08/06 03:26:39;;;;;;;11.02;7.68;;;;;;;-142.75;100.00;75350.03;5071900;28;20115;-66
2023/08/06 03:29:04;;;;;;;11.07;8.07;;;;;;;-142.75;100.00;75353.97;5068226;28;20523;-66
2023/08/06 03:31:29;;;;;;;11.35;7.45;;;;;;;-142.75;100.00;75352.00;5067778;28;20496;-66
2023/08/06 03:33:55;;;;;;;14.27;7.28;;;;;;;-142.75;100.00;75369.69;5067667;28;20150;-66
2023/08/06 03:36:20;;;;;;;10.23;6.70;;;;;;;-142.75;100.00;75365.75;5068817;28;20565;-66
2023/08/06 03:38:45;;;;;;;9.57;6.35;;;;;;;-142.75;100.00;75371.66;5067517;28;20453;-67
2023/08/06 03:41:11;;;;;;;5.75;3.45;;;;;;;-142.75;100.00;75409.06;5067930;28;20036;-66
2023/08/06 03:43:36;;;;;;;4.47;2.72;;;;;;;-142.75;100.00;75424.81;5067356;28;20056;-66
2023/08/06 03:46:01;;;;;;;2.25;1.30;;;;;;;-142.75;100.00;75452.34;5067358;28;20027;-66
2023/08/06 03:48:27;;;;;;;2.28;1.13;;;;;;;-142.75;100.00;75424.81;5067474;28;20055;-66
2023/08/06 03:50:52;;;;;;;2.92;1.38;;;;;;;-142.75;100.00;75432.69;5067485;28;20071;-66
2023/08/06 03:53:17;;;;;;;3.92;0.93;;;;;;;-142.75;100.00;75434.66;5065551;28;20056;-66
2023/08/06 03:55:43;;;;;;;2.28;1.17;;;;;;;-142.75;100.00;75418.91;5066886;28;20141;-66
2023/08/06 03:58:08;;;;;;;4.72;1.63;;;;;;;-142.75;100.00;75413.00;5067340;28;20090;-66
2023/08/06 04:00:33;;;;;;;4.53;2.40;;;;;;;-142.75;100.00;75409.06;5067020;28;20387;-66
2023/08/06 04:02:59;;;;;;;3.35;2.35;;;;;;;-142.75;100.00;75432.69;5067053;28;20103;-66
2023/08/06 04:05:24;;;;;;;4.80;3.38;;;;;;;-142.75;100.00;75420.88;5068252;28;20120;-66
2023/08/06 04:07:49;;;;;;;4.93;3.70;;;;;;;-142.75;100.00;75438.56;5066935;28;20024;-66
2023/08/06 04:10:15;;;;;;;4.85;3.20;;;;;;;-142.75;100.00;75460.22;5066964;28;20050;-66
2023/08/06 04:12:40;;;;;;;5.22;2.75;;;;;;;-142.75;100.00;75517.28;5065434;28;20512;-66
2023/08/06 04:15:06;;;;;;;6.07;3.00;;;;;;;-142.75;100.00;75519.25;5066959;28;20402;-66
2023/08/06 04:17:31;;;;;;;4.43;2.50;;;;;;;-142.75;100.00;75574.38;5066661;28;20025;-66
2023/08/06 04:20:00;;;;;;;8.80;2.45;;;;;;;-142.75;100.00;75603.88;5066844;28;20113;-67
2023/08/06 04:22:25;;;;;;;3.88;2.25;;;;;;;-142.75;100.00;75613.72;5066498;28;20053;-66
2023/08/06 04:24:51;;;;;;;6.28;2.40;;;;;;;-142.75;100.00;75629.47;5066995;28;20081;-66
2023/08/06 04:27:18;;;;;;;4.38;2.08;;;;;;;-142.75;100.00;75629.47;5066747;28;20035;-66
2023/08/06 04:29:44;;;;;;;6.38;2.55;;;;;;;-142.75;100.00;75653.09;5066595;28;20149;-66
2023/08/06 04:32:10;;;;;;;5.68;2.17;;;;;;;-142.75;100.00;75649.16;5065145;28;20153;-66
2023/08/06 04:34:36;;;;;;;4.38;2.30;;;;;;;-142.75;100.00;75657.03;5066929;28;20056;-66
2023/08/06 04:37:03;;;;;;;5.15;2.25;;;;;;;-142.75;100.00;75657.03;5067421;28;20059;-66
2023/08/06 04:39:29;;;;;;;6.68;2.22;;;;;;;-142.75;100.00;75684.56;5066358;28;20103;-66
2023/08/06 04:41:56;;;;;;;4.40;1.90;;;;;;;-142.75;100.00;75657.03;5065952;28;20563;-66
2023/08/06 04:44:21;;;;;;;6.70;2.30;;;;;;;-142.75;100.00;75672.78;5065095;28;20024;-66
2023/08/06 04:46:46;;;;;;;7.13;2.53;;;;;;;-142.75;100.00;75676.69;5066574;28;20032;-66
2023/08/06 04:49:12;;;;;;;4.50;2.40;;;;;;;-142.75;100.00;75657.03;5066473;28;20016;-66
2023/08/06 04:51:37;;;;;;;9.05;2.42;;;;;;;-142.75;100.00;75664.91;5066282;28;20020;-66
2023/08/06 04:54:03;;;;;;;6.10;2.42;;;;;;;-142.75;100.00;75657.03;5066261;28;20590;-66
2023/08/06 04:56:28;;;;;;;7.18;2.67;;;;;;;-142.75;100.00;75651.13;5066328;28;20028;-66
2023/08/06 04:58:54;;;;;;;5.40;2.85;;;;;;;-142.75;100.00;75660.97;5066332;28;20507;-66
2023/08/06 05:01:19;;;;;;;6.38;2.75;;;;;;;-142.75;100.00;75645.22;5066360;28;20077;-66
2023/08/06 05:03:46;;;;;;;8.57;2.60;;;;;;;-142.75;100.00;75666.88;5065806;28;20116;-66
2023/08/06 05:06:11;;;;;;;8.48;2.72;;;;;;;-142.75;100.00;75655.06;5073575;28;20035;-66
2023/08/06 05:08:37;;;;;;;7.40;2.40;;;;;;;-142.75;100.00;75637.34;5072885;28;20407;-66
2023/08/06 05:11:02;;;;;;;6.45;2.47;;;;;;;-142.75;100.00;75633.41;5072912;28;20028;-66
2023/08/06 05:13:28;;;;;;;7.18;2.30;;;;;;;-142.75;100.00;75629.47;5072638;28;20028;-67
2023/08/06 05:15:54;;;;;;;3.60;1.92;;;;;;;-142.75;100.00;75629.47;5072986;28;20020;-66
2023/08/06 05:18:20;;;;;;;6.35;2.65;;;;;;;-142.75;100.00;75633.41;5072982;28;20241;-66
2023/08/06 05:20:45;;;;;;;6.30;2.65;;;;;;;-142.75;100.00;75615.69;5072636;28;20112;-66
2023/08/06 05:23:10;;;;;;;6.30;2.78;;;;;;;-142.75;100.00;75617.66;5072696;28;20024;-67
2023/08/06 05:25:36;;;;;;;5.72;2.78;;;;;;;-142.75;100.00;75629.47;5072785;28;20032;-66
2023/08/06 05:28:02;;;;;;;5.45;2.60;;;;;;;-142.75;100.00;75607.81;5072860;28;20664;-66
2023/08/06 05:30:28;;;;;;;6.45;2.40;;;;;;;-142.75;100.00;75609.78;5077570;28;20213;-66
2023/08/06 05:32:55;;;;;;;4.50;2.80;;;;;;;-142.75;100.00;75599.94;5092549;28;20519;-67
2023/08/06 05:35:21;;;;;;;7.88;3.15;;;;;;;-142.75;100.00;75609.78;5093557;28;20020;-66
2023/08/06 05:37:46;;;;;;;8.10;3.05;;;;;;;-142.75;100.00;75596.00;5092778;28;20153;-66
2023/08/06 05:40:11;;;;;;;6.82;3.05;;;;;;;-142.75;100.00;75605.84;5092501;28;20052;-66
2023/08/06 05:42:36;;;;;;;8.05;3.67;;;;;;;-142.75;100.00;75594.06;5091994;28;20019;-66
2023/08/06 05:45:02;;;;;;;9.55;3.60;;;;;;;-142.75;100.00;75596.00;5092133;28;20023;-67
2023/08/06 05:47:27;;;;;;;6.35;3.15;;;;;;;-142.75;100.00;75613.72;5077288;28;20031;-66
2023/08/06 05:49:53;;;;;;;9.70;3.60;;;;;;;-142.75;100.00;75594.06;5072576;28;20020;-66
2023/08/06 05:52:19;;;;;;;8.70;3.70;;;;;;;-142.75;100.00;75586.19;5072450;28;20531;-66
2023/08/06 05:54:44;;;;;;;9.50;3.08;;;;;;;-142.75;100.00;75605.84;5072390;28;20048;-66
2023/08/06 05:57:10;;;;;;;6.72;3.10;;;;;;;-142.75;100.00;75607.81;5072305;28;20082;-66
2023/08/06 05:59:35;;;;;;;9.77;3.97;;;;;;;-142.75;100.00;75601.91;5071057;28;20051;-66
2023/08/06 06:02:00;;;;;;;50.67;34.95;;;;;;;-142.75;100.00;75599.94;5072057;28;20039;-66
2023/08/06 06:04:26;;;;;;;13.38;3.35;;;;;;;-142.75;100.00;75597.97;5072105;28;20028;-66
2023/08/06 06:06:51;;;;;;;9.35;2.78;;;;;;;-142.75;100.00;75597.97;5073386;28;20392;-66
2023/08/06 06:09:17;;;;;;;7.32;2.47;;;;;;;-142.75;100.00;75613.72;5072050;28;20709;-66
2023/08/06 06:11:42;;;;;;;34.88;32.00;;;;;;;-142.75;100.00;75605.84;5071927;28;20036;-66
2023/08/06 06:14:07;;;;;;;1041.10;518.08;;;;;;;-142.75;100.00;75617.66;5071762;28;20036;-66
2023/08/06 06:16:34;;;;;;;540.85;280.25;;;;;;;-142.75;100.00;75586.19;5069342;28;20028;-66
2023/08/06 06:18:59;;;;;;;4.72;2.45;;;;;;;-142.75;100.00;75596.00;5068944;28;20032;-66
2023/08/06 06:21:24;;;;;;;59.25;23.73;;;;;;;-142.75;100.00;75609.78;5068865;28;20046;-66
2023/08/06 06:23:51;;;;;;;3.80;1.77;;;;;;;-142.75;100.00;75599.94;5068524;28;20036;-66
2023/08/06 06:26:19;;;;;;;4.35;1.90;;;;;;;-142.75;100.00;75607.81;5068818;28;20495;-66
2023/08/06 06:28:45;;;;;;;6.30;2.45;;;;;;;-142.75;100.00;75619.63;5069091;28;20082;-66
2023/08/06 06:31:10;;;;;;;3.70;1.48;;;;;;;-142.75;100.00;75607.81;5069090;28;20040;-67
2023/08/06 06:33:36;;;;;;;4.47;1.67;;;;;;;-142.75;100.00;75613.72;5068712;28;20028;-66
2023/08/06 06:36:03;;;;;;;8.65;2.00;;;;;;;-142.75;100.00;75605.84;5069885;28;20095;-66
2023/08/06 06:38:29;;;;;;;5.82;1.40;;;;;;;-142.75;100.00;75599.94;5068357;28;20028;-66
2023/08/06 06:40:55;;;;;;;7.25;1.60;;;;;;;-142.75;100.00;75601.91;5068095;28;20038;-66
2023/08/06 06:43:20;;;;;;;3.53;1.33;;;;;;;-142.75;100.00;75592.09;5068464;28;20028;-66
2023/08/06 06:45:45;;;;;;;7.93;1.38;;;;;;;-142.75;100.00;75590.13;5068909;28;20103;-66
2023/08/06 06:48:11;;;;;;;3.90;1.50;;;;;;;-142.75;100.00;75594.06;5068698;28;20032;-66
2023/08/06 06:50:36;;;;;;;3.15;1.08;;;;;;;-142.75;100.00;75603.88;5068614;28;20020;-67
2023/08/06 06:53:01;;;;;;;7.13;1.58;;;;;;;-142.75;100.00;75590.13;5068285;28;20117;-66
2023/08/06 06:55:27;;;;;;;3.60;1.20;;;;;;;-142.75;100.00;75609.78;5068457;28;20033;-66
2023/08/06 06:57:52;;;;;;;5.68;1.52;;;;;;;-142.75;100.00;75594.06;5068430;28;20031;-67
2023/08/06 07:00:18;;;;;;;5.65;1.30;;;;;;;-142.75;100.00;75594.06;5068450;28;20116;-66
2023/08/06 07:02:43;;;;;;;11.07;2.78;;;;;;;-142.75;100.00;75597.97;5066994;28;20056;-67
2023/08/06 07:05:09;;;;;;;7.38;1.00;;;;;;;-142.75;100.00;75609.78;5068692;28;20125;-66
2023/08/06 07:07:35;;;;;;;7.22;1.90;;;;;;;-142.75;100.00;75613.72;5068646;28;20027;-66
2023/08/06 07:10:01;;;;;;;6.20;1.13;;;;;;;-142.75;100.00;75613.72;5068139;28;20020;-66
2023/08/06 07:12:26;;;;;;;4.55;0.93;;;;;;;-142.75;100.00;75631.44;5077094;28;20518;-66
2023/08/06 07:14:51;;;;;;;3.15;1.33;;;;;;;-142.75;100.00;75629.47;5088810;28;20080;-66
2023/08/06 07:17:17;;;;;;;4.80;1.20;;;;;;;-142.75;100.00;75655.06;5084220;28;20097;-67
2023/08/06 07:19:42;;;;;;;3.22;1.30;;;;;;;-142.75;100.00;75647.19;5068410;28;20020;-67
2023/08/06 07:22:07;;;;;;;2.50;1.08;;;;;;;-142.75;100.00;75655.06;5081699;28;20108;-67
2023/08/06 07:24:33;;;;;;;4.10;1.27;;;;;;;-142.75;100.00;75655.06;5087398;28;20065;-67
2023/08/06 07:26:58;;;;;;;7.93;1.52;;;;;;;-142.75;100.00;75643.25;5088354;28;20028;-67
2023/08/06 07:29:23;;;;;;;4.72;1.50;;;;;;;-142.75;100.00;75639.31;5075577;28;20523;-67
2023/08/06 07:31:50;;;;;;;5.18;1.40;;;;;;;-142.75;100.00;75657.03;5067146;28;20480;-65
2023/08/06 07:34:15;;;;;;;4.70;1.45;;;;;;;-142.75;100.00;75657.03;5068528;28;20177;-66
2023/08/06 07:36:44;;;;;;;3.88;1.40;;;;;;;-142.75;100.00;75645.22;5068860;28;20107;-67
2023/08/06 07:39:10;;;;;;;8.13;1.95;;;;;;;-142.75;100.00;75641.28;5065780;28;20496;-66
2023/08/06 07:41:35;;;;;;;5.38;1.60;;;;;;;-142.75;100.00;75633.41;5066800;28;20028;-67
2023/08/06 07:44:01;;;;;;;4.05;1.60;;;;;;;-142.75;100.00;75639.31;5066778;28;20029;-66
2023/08/06 07:46:26;;;;;;;4.97;1.40;;;;;;;-142.75;100.00;75645.22;5073568;28;20039;-66
2023/08/06 07:48:51;;;;;;;5.80;2.03;;;;;;;-142.75;100.00;75635.38;5074777;28;20028;-65
2023/08/06 07:51:16;;;;;;;6.57;1.67;;;;;;;-142.75;100.00;75637.34;5068847;28;20024;-65
2023/08/06 07:53:42;;;;;;;5.97;1.92;;;;;;;-142.75;100.00;75625.53;5071562;28;20028;-66
2023/08/06 07:56:07;;;;;;;5.25;1.77;;;;;;;-142.75;100.00;75615.69;5072506;28;20035;-66
2023/08/06 07:58:33;;;;;;;3.80;1.83;;;;;;;-142.75;100.00;75609.78;5072397;28;20033;-66
2023/08/06 08:00:58;;;;;;;3.20;1.55;;;;;;;-142.75;100.00;75625.53;5071082;28;20052;-66
2023/08/06 08:03:23;;;;;;;3.30;1.83;;;;;;;-142.75;100.00;75611.75;5073884;28;20039;-66
2023/08/06 08:05:49;;;;;;;5.03;1.65;;;;;;;-142.75;100.00;75609.78;5070600;28;20024;-65
2023/08/06 08:08:14;;;;;;;7.43;1.83;;;;;;;-142.75;100.00;75623.56;5075660;28;20020;-65
2023/08/06 08:10:39;;;;;;;3.60;1.77;;;;;;;-142.75;100.00;75619.63;5069270;28;20059;-65
2023/08/06 08:13:05;;;;;;;8.43;1.85;;;;;;;-142.75;100.00;75621.59;5072381;28;20031;-65
2023/08/06 08:15:31;;;;;;;5.88;1.80;;;;;;;-142.75;100.00;75615.69;5071808;28;20032;-65
2023/08/06 08:17:57;;;;;;;9.10;2.35;;;;;;;-142.75;100.00;75621.59;5073007;28;20052;-66
2023/08/06 08:20:22;;;;;;;6.47;1.67;;;;;;;-142.75;100.00;75676.69;5069936;28;20115;-65
2023/08/06 08:22:48;;;;;;;3.70;1.48;;;;;;;-142.75;100.00;75706.22;5072967;28;20399;-65
2023/08/06 08:25:15;;;;;;;3.38;1.48;;;;;;;-142.75;100.00;75686.53;5067419;28;20032;-65
2023/08/06 08:27:40;;;;;;;3.95;1.23;;;;;;;-142.75;100.00;75718.03;5065975;28;20023;-65
2023/08/06 08:30:06;;;;;;;4.18;1.67;;;;;;;-142.75;100.00;75710.16;5068830;28;20019;-65
2023/08/06 08:32:31;;;;;;;3.78;2.00;;;;;;;-142.75;100.00;75704.25;5069401;28;20123;-65
2023/08/06 08:34:57;;;;;;;3.30;1.83;;;;;;;-142.75;100.00;75708.19;5072587;28;20028;-65
2023/08/06 08:37:23;;;;;;;5.15;1.67;;;;;;;-142.75;100.00;75720.00;5069800;28;20039;-65
2023/08/06 08:39:48;;;;;;;6.68;1.90;;;;;;;-142.75;100.00;75727.88;5078827;28;20081;-65
2023/08/06 08:42:15;;;;;;;4.43;1.60;;;;;;;-142.75;100.00;75743.63;5072601;28;20457;-65
2023/08/06 08:44:43;;;;;;;5.65;1.27;;;;;;;-142.75;100.00;75743.63;5066500;28;20040;-65
2023/08/06 08:47:10;;;;;;;5.63;1.90;;;;;;;-142.75;100.00;75749.53;5066800;28;20074;-64
2023/08/06 08:49:36;;;;;;;5.38;1.80;;;;;;;-142.75;100.00;75745.59;5076411;28;20020;-65
2023/08/06 08:52:03;;;;;;;3.17;1.50;;;;;;;-142.75;100.00;75751.50;5071061;28;20020;-63
2023/08/06 08:54:32;;;;;;;4.30;1.65;;;;;;;-142.75;100.00;75753.47;5074218;28;20032;-64
2023/08/06 08:56:57;;;;;;;4.70;2.53;;;;;;;-142.75;100.00;75755.44;5070794;28;20462;-65
2023/08/06 08:59:23;;;;;;;5.88;1.50;;;;;;;-142.75;100.00;75759.38;5072872;28;20089;-64
2023/08/06 09:01:51;;;;;;;6.18;1.80;;;;;;;-142.75;100.00;75761.34;5068901;28;20104;-65
2023/08/06 09:04:19;;;;;;;2.22;1.10;;;;;;;-142.75;100.00;75769.19;5075463;28;20119;-64
2023/08/06 09:06:50;;;;;;;3.15;1.52;;;;;;;-142.75;100.00;75757.41;5076158;28;20100;-65
2023/08/06 09:09:37;;;;;;;6.25;1.70;;;;;;;-142.75;100.00;75755.44;5072834;28;20016;-64
2023/08/06 09:12:10;;;;;;;3.58;1.50;;;;;;;-142.75;100.00;75739.69;5075579;28;20037;-64
2023/08/06 09:14:35;;;;;;;5.13;1.90;;;;;;;-142.75;100.00;75718.03;5072027;28;20016;-65
2023/08/06 09:17:01;;;;;;;4.57;1.75;;;;;;;-142.75;100.00;75714.09;5070577;28;20043;-64
2023/08/06 09:19:26;;;;;;;5.40;1.50;;;;;;;-142.75;100.00;75729.84;5074196;28;20112;-64
2023/08/06 09:21:53;;;;;;;4.00;1.05;;;;;;;-142.75;100.00;75727.88;5072363;28;20021;-65
2023/08/06 09:24:18;;;;;;;4.47;1.90;;;;;;;-142.75;100.00;75712.13;5067146;28;20028;-64
2023/08/06 09:26:44;;;;;;;4.28;1.40;;;;;;;-142.75;100.00;75720.00;5065268;28;20487;-65
2023/08/06 09:29:11;;;;;;;2.30;1.20;;;;;;;-142.75;100.00;75712.13;5067626;28;20032;-63
2023/08/06 09:31:44;;;;;;;5.30;1.33;;;;;;;-142.75;100.00;75686.53;5072557;28;20062;-64
2023/08/06 09:34:19;;;;;;;3.83;1.35;;;;;;;-142.75;100.00;75668.84;5069918;28;20115;-65
2023/08/06 09:36:50;;;;;;;6.13;1.40;;;;;;;-142.75;100.00;75662.94;5074705;28;20032;-64
2023/08/06 09:39:17;;;;;;;5.03;1.38;;;;;;;-142.75;100.00;75668.84;5067768;28;20407;-64
2023/08/06 09:41:43;;;;;;;4.25;1.73;;;;;;;-142.75;100.00;75645.22;5070706;28;20113;-64
2023/08/06 09:44:21;;;;;;;7.93;4.80;;;;;;;-142.75;100.00;75641.28;5070778;28;20112;-64
2023/08/06 09:46:54;;;;;;;2.90;1.45;;;;;;;-142.75;100.00;75615.69;5068842;28;20020;-64
2023/08/06 09:49:25;;;;;;;2.78;1.48;;;;;;;-142.75;100.00;75639.31;5071354;28;20021;-64
2023/08/06 09:51:53;;;;;;;3.35;1.27;;;;;;;-142.75;100.00;75664.91;5072594;28;20024;-64
2023/08/06 09:54:19;;;;;;;3.15;1.25;;;;;;;-142.75;100.00;75694.41;5077040;28;20035;-64
2023/08/06 09:56:44;;;;;;;4.13;1.30;;;;;;;-142.75;100.00;75696.38;5088347;28;20027;-64
2023/08/06 09:59:13;;;;;;;2.85;1.20;;;;;;;-142.75;100.00;75666.88;5088221;28;20035;-64
2023/08/06 10:01:38;;;;;;;4.10;1.25;;;;;;;-142.75;100.00;75664.91;5088397;28;20020;-64
2023/08/06 10:04:05;;;;;;;4.15;1.10;;;;;;;-142.75;100.00;75674.72;5088254;28;20034;-65
2023/08/06 10:06:35;;;;;;;3.20;1.27;;;;;;;-142.75;100.00;75712.13;5089045;28;20028;-64
2023/08/06 10:09:01;;;;;;;2.80;1.20;;;;;;;-142.75;100.00;75716.06;5088541;28;20545;-64
2023/08/06 10:11:28;;;;;;;4.30;1.15;;;;;;;-142.75;100.00;75721.97;5087780;28;20080;-65
2023/08/06 10:14:00;;;;;;;3.00;1.42;;;;;;;-142.75;100.00;75692.44;5087928;28;20024;-64
2023/08/06 10:16:26;;;;;;;1.92;1.10;;;;;;;-142.75;100.00;75674.72;5088067;28;20038;-64
2023/08/06 10:18:53;;;;;;;2.85;1.17;;;;;;;-142.75;100.00;75662.94;5067984;28;20052;-65
2023/08/06 10:21:21;;;;;;;3.10;0.98;;;;;;;-142.75;100.00;75692.44;5067737;28;20025;-64
2023/08/06 10:23:54;;;;;;;2.92;1.08;;;;;;;-142.75;100.00;75676.69;5068016;28;20094;-65
2023/08/06 10:26:20;;;;;;;2.15;1.05;;;;;;;-142.75;100.00;75684.56;5069155;28;20096;-64
2023/08/06 10:28:45;;;;;;;4.10;1.27;;;;;;;-142.75;100.00;75660.97;5074849;28;20030;-64
2023/08/06 10:31:10;;;;;;;3.63;1.02;;;;;;;-142.75;100.00;75633.41;5073516;28;20055;-64
2023/08/06 10:33:43;;;;;;;2.47;0.93;;;;;;;-142.75;100.00;75590.13;5071081;28;20056;-65
2023/08/06 10:36:09;;;;;;;2.70;1.00;;;;;;;-142.75;100.00;75588.16;5075795;28;20020;-65
2023/08/06 10:38:37;;;;;;;2.08;1.08;;;;;;;-142.75;100.00;75586.19;5075461;28;20043;-65
2023/08/06 10:41:03;;;;;;;5.47;1.00;;;;;;;-142.75;100.00;75611.75;5071309;28;20031;-65
2023/08/06 10:43:33;;;;;;;2.83;1.23;;;;;;;-142.75;100.00;75570.44;5072909;28;20027;-65
2023/08/06 10:46:01;;;;;;;2.47;0.90;;;;;;;-142.75;100.00;75570.44;5072799;28;20111;-63
2023/08/06 10:48:38;;;;;;;1.85;1.20;;;;;;;-142.75;100.00;75590.13;5070317;28;20032;-65
2023/08/06 10:51:08;;;;;;;3.13;1.02;;;;;;;-142.75;100.00;75572.41;5071810;28;20062;-64
2023/08/06 10:53:33;;;;;;;2.67;0.98;;;;;;;-142.75;100.00;75621.59;5075163;28;20059;-64
2023/08/06 10:55:58;;;;;;;4.57;1.15;;;;;;;-142.75;100.00;75621.59;5071054;28;20060;-64
2023/08/06 10:58:24;;;;;;;2.53;0.88;;;;;;;-142.75;100.00;75631.44;5073654;28;20042;-64
2023/08/06 11:00:49;;;;;;;3.72;1.00;;;;;;;-142.75;100.00;75635.38;5080833;28;20056;-64
2023/08/06 11:03:15;;;;;;;3.05;1.02;;;;;;;-142.75;100.00;75615.69;5087433;28;20544;-64